Time;durP1;ratioP1;P1;durP2;ratioP2;P2;SDS_P1;SDS_P2;PMS_P1;PMS_P2;Temp;Humidity;BMP_temperature;BMP_pressure;BME280_temperature;BME280_humidity;BME280_pressure;Samples;Min_cycle;Max_cycle;Signal;HPM_P1;HPM_P2
2021/04/26 04:00:56;;;;;;;1.60;1.50;;;2.80;99.90;;;;;;5687688;23;20308;-71
2021/04/26 04:03:22;;;;;;;1.98;1.88;;;2.80;99.90;;;;;;4937691;29;20577;-71
2021/04/26 04:05:48;;;;;;;1.65;1.55;;;2.80;99.90;;;;;;4937607;28;20221;-69
2021/04/26 04:08:15;;;;;;;1.67;1.67;;;2.80;99.90;;;;;;4937794;29;20210;-69
2021/04/26 04:10:41;;;;;;;1.67;1.67;;;2.80;99.90;;;;;;4937450;29;20230;-69
2021/04/26 04:13:07;;;;;;;2.38;1.85;;;2.80;99.90;;;;;;4937335;29;20232;-69
2021/04/26 04:15:33;;;;;;;2.00;1.90;;;2.80;99.90;;;;;;4937185;29;20226;-69
2021/04/26 04:18:00;;;;;;;1.75;1.65;;;2.90;99.90;;;;;;4937634;29;20213;-69
2021/04/26 04:20:26;;;;;;;1.60;1.60;;;2.90;99.90;;;;;;4937598;29;20576;-69
2021/04/26 04:22:53;;;;;;;1.33;1.33;;;2.90;99.90;;;;;;4937386;29;20214;-69
2021/04/26 04:25:20;;;;;;;1.50;1.50;;;2.90;99.90;;;;;;4937297;29;20202;-69
2021/04/26 04:27:47;;;;;;;2.03;1.92;;;2.90;99.90;;;;;;4937140;29;20221;-70
2021/04/26 04:30:15;;;;;;;1.70;1.70;;;3.00;99.90;;;;;;4936892;29;20210;-69
2021/04/26 04:32:41;;;;;;;1.52;1.52;;;3.00;99.90;;;;;;4937288;29;20584;-70
2021/04/26 04:35:09;;;;;;;3.42;1.63;;;3.00;99.90;;;;;;4936882;29;20222;-70
2021/04/26 04:37:35;;;;;;;2.30;2.20;;;3.10;99.90;;;;;;4937427;29;20217;-69
2021/04/26 04:40:03;;;;;;;1.80;1.70;;;3.10;99.90;;;;;;4936983;29;20213;-69
2021/04/26 04:42:29;;;;;;;2.58;2.47;;;3.20;99.90;;;;;;4936487;29;20276;-69
2021/04/26 04:44:55;;;;;;;2.05;1.98;;;3.30;99.90;;;;;;4936821;29;20206;-70
2021/04/26 04:47:22;;;;;;;1.85;1.75;;;3.30;99.90;;;;;;4937311;29;20578;-70
2021/04/26 04:49:48;;;;;;;2.30;2.08;;;3.40;99.90;;;;;;4937018;29;20308;-70
2021/04/26 04:52:15;;;;;;;1.73;1.60;;;3.40;99.90;;;;;;4936971;29;20234;-69
2021/04/26 04:54:41;;;;;;;2.42;2.28;;;3.50;99.90;;;;;;4937446;29;20233;-69
2021/04/26 04:57:08;;;;;;;1.52;1.35;;;3.60;99.90;;;;;;4936677;29;20276;-71
2021/04/26 04:59:35;;;;;;;2.03;1.92;;;3.60;99.90;;;;;;4936644;29;20206;-71
2021/04/26 05:02:01;;;;;;;1.33;1.33;;;3.60;99.90;;;;;;4936657;29;20237;-71
2021/04/26 05:04:27;;;;;;;2.22;2.13;;;3.70;99.90;;;;;;4936780;29;20214;-71
2021/04/26 05:06:54;;;;;;;3.00;1.50;;;3.70;99.90;;;;;;4936642;28;20357;-71
2021/04/26 05:09:21;;;;;;;2.55;1.70;;;3.80;99.90;;;;;;4936627;29;20222;-71
2021/04/26 05:11:47;;;;;;;3.17;1.10;;;3.90;99.90;;;;;;4936662;29;20241;-71
2021/04/26 05:14:13;;;;;;;2.88;1.67;;;3.90;99.90;;;;;;4935959;29;20210;-71
2021/04/26 05:16:40;;;;;;;1.38;1.30;;;4.00;99.90;;;;;;4936073;29;20646;-71
2021/04/26 05:19:06;;;;;;;1.42;1.33;;;4.00;99.90;;;;;;4936348;29;20234;-71
2021/04/26 05:21:32;;;;;;;1.95;1.10;;;4.00;99.90;;;;;;4936309;29;20230;-71
2021/04/26 05:23:58;;;;;;;1.50;1.40;;;4.00;99.90;;;;;;4936343;29;20214;-71
2021/04/26 05:26:27;;;;;;;4.28;1.60;;;4.00;99.90;;;;;;4936253;29;20202;-71
2021/04/26 05:28:54;;;;;;;3.65;1.23;;;4.10;99.90;;;;;;4935771;29;20209;-71
2021/04/26 05:31:20;;;;;;;1.90;1.90;;;4.10;99.90;;;;;;4935996;29;20230;-72
2021/04/26 05:33:46;;;;;;;1.48;1.38;;;4.20;99.90;;;;;;4935975;29;20282;-72
2021/04/26 05:36:13;;;;;;;2.13;1.95;;;4.20;99.90;;;;;;4935855;29;20226;-72
2021/04/26 05:38:39;;;;;;;1.13;1.13;;;4.40;99.90;;;;;;4936049;29;20210;-72
2021/04/26 05:41:05;;;;;;;1.40;1.40;;;4.50;99.90;;;;;;4936030;29;20343;-72
2021/04/26 05:43:32;;;;;;;1.52;1.50;;;4.50;99.90;;;;;;4935355;29;20262;-72
2021/04/26 05:45:58;;;;;;;7.22;2.08;;;4.60;99.90;;;;;;4936015;29;20213;-72
2021/04/26 05:48:25;;;;;;;1.30;1.30;;;4.70;99.90;;;;;;4936006;29;20297;-72
2021/04/26 05:50:53;;;;;;;1.63;1.63;;;4.70;99.90;;;;;;4935191;29;20332;-70
2021/04/26 05:53:20;;;;;;;1.23;1.23;;;4.90;99.90;;;;;;4936072;29;20212;-69
2021/04/26 05:55:46;;;;;;;1.60;1.50;;;5.00;99.90;;;;;;4935612;29;20229;-69
2021/04/26 05:58:12;;;;;;;1.65;1.42;;;5.10;99.90;;;;;;4935429;29;20209;-69
2021/04/26 06:00:39;;;;;;;1.40;1.40;;;5.10;99.90;;;;;;4935272;29;20252;-69
2021/04/26 06:03:06;;;;;;;5.47;1.38;;;5.10;99.90;;;;;;4935565;29;20210;-69
2021/04/26 06:05:33;;;;;;;2.10;1.88;;;5.20;99.90;;;;;;4935904;29;20205;-69
2021/04/26 06:07:59;;;;;;;5.22;1.75;;;5.20;99.90;;;;;;4935595;28;20284;-69
2021/04/26 06:10:25;;;;;;;2.38;1.42;;;5.20;99.90;;;;;;4936044;29;20264;-69
2021/04/26 06:12:51;;;;;;;1.30;1.20;;;5.30;99.90;;;;;;4934985;29;20213;-69
2021/04/26 06:15:18;;;;;;;1.23;1.13;;;5.40;99.90;;;;;;4934754;29;20293;-69
2021/04/26 06:17:45;;;;;;;1.10;1.10;;;5.50;99.90;;;;;;4935385;29;20214;-69
2021/04/26 06:20:12;;;;;;;1.20;1.20;;;5.60;99.90;;;;;;4935508;29;20217;-70
2021/04/26 06:22:38;;;;;;;1.42;1.23;;;5.70;99.90;;;;;;4935305;29;20242;-69
2021/04/26 06:25:05;;;;;;;1.67;1.58;;;5.80;99.90;;;;;;4935620;29;20308;-69
2021/04/26 06:27:32;;;;;;;2.85;2.67;;;5.90;99.90;;;;;;4934852;29;20225;-70
2021/04/26 06:29:58;;;;;;;1.75;1.65;;;6.10;99.90;;;;;;4934992;29;20213;-69
2021/04/26 06:32:24;;;;;;;1.40;1.30;;;6.20;99.90;;;;;;4934910;29;20234;-70
2021/04/26 06:34:52;;;;;;;3.90;1.92;;;6.30;99.90;;;;;;4935249;29;20217;-70
2021/04/26 06:37:18;;;;;;;1.65;1.10;;;6.40;99.90;;;;;;4935472;29;20230;-69
2021/04/26 06:39:44;;;;;;;0.95;0.95;;;6.60;99.90;;;;;;4935095;29;20241;-69
2021/04/26 06:42:10;;;;;;;1.23;1.13;;;6.70;99.90;;;;;;4934065;29;20237;-70
2021/04/26 06:44:36;;;;;;;1.00;1.00;;;7.00;99.90;;;;;;4934498;29;20214;-70
2021/04/26 06:47:04;;;;;;;1.00;1.00;;;7.00;99.90;;;;;;4934808;29;20234;-70
2021/04/26 06:49:30;;;;;;;2.05;1.38;;;6.90;99.70;;;;;;4935254;29;20209;-70
2021/04/26 06:51:57;;;;;;;0.93;0.93;;;6.80;99.90;;;;;;4934935;29;20252;-71
2021/04/26 06:54:23;;;;;;;1.35;1.35;;;6.90;99.50;;;;;;4935041;29;20210;-68
2021/04/26 06:56:50;;;;;;;2.40;1.30;;;7.20;99.90;;;;;;4935143;29;20234;-70
2021/04/26 06:59:16;;;;;;;2.05;0.90;;;7.50;99.90;;;;;;4934399;29;20631;-69
2021/04/26 07:01:42;;;;;;;2.75;0.88;;;7.60;99.10;;;;;;4934145;29;20297;-69
2021/04/26 07:04:09;;;;;;;1.38;0.80;;;7.80;98.80;;;;;;4938131;29;20253;-69
2021/04/26 07:06:35;;;;;;;1.65;0.80;;;7.80;98.20;;;;;;4938772;28;20224;-70
2021/04/26 07:09:03;;;;;;;0.70;0.70;;;7.90;97.40;;;;;;4938818;29;20210;-70
2021/04/26 07:11:29;;;;;;;0.90;0.70;;;7.80;96.30;;;;;;4938715;29;20230;-70
2021/04/26 07:13:55;;;;;;;0.95;0.70;;;7.70;96.00;;;;;;4938091;29;20634;-71
2021/04/26 07:16:22;;;;;;;0.70;0.70;;;7.70;96.10;;;;;;4938288;29;20226;-72
2021/04/26 07:18:48;;;;;;;1.52;0.90;;;7.70;96.20;;;;;;4938924;29;20682;-70
2021/04/26 07:21:15;;;;;;;4.95;1.10;;;7.70;96.20;;;;;;4938942;29;20232;-70
2021/04/26 07:23:41;;;;;;;0.93;0.93;;;7.80;96.10;;;;;;4938792;29;20213;-71
2021/04/26 07:26:08;;;;;;;2.95;0.60;;;8.00;96.80;;;;;;4943888;29;20210;-70
2021/04/26 07:28:35;;;;;;;1.98;0.88;;;8.20;95.90;;;;;;4943077;29;20245;-70
2021/04/26 07:31:01;;;;;;;0.55;0.55;;;8.30;94.90;;;;;;4942087;29;20288;-70
2021/04/26 07:33:27;;;;;;;0.93;0.47;;;8.60;94.80;;;;;;4939932;29;20218;-70
2021/04/26 07:35:54;;;;;;;1.98;0.50;;;8.80;93.80;;;;;;4938695;29;20253;-70
2021/04/26 07:38:20;;;;;;;0.50;0.50;;;8.90;91.90;;;;;;4938652;29;20210;-69
2021/04/26 07:40:46;;;;;;;0.45;0.45;;;8.90;91.50;;;;;;4938625;29;20233;-71
2021/04/26 07:43:13;;;;;;;0.60;0.60;;;8.90;91.10;;;;;;4937801;29;20214;-69
2021/04/26 07:45:39;;;;;;;1.23;1.02;;;8.90;90.80;;;;;;4937800;29;20210;-71
2021/04/26 07:48:06;;;;;;;2.00;1.00;;;9.10;91.00;;;;;;4938357;29;20229;-72
2021/04/26 07:50:32;;;;;;;1.30;1.15;;;9.20;87.60;;;;;;4938246;29;20596;-73
2021/04/26 07:52:59;;;;;;;0.47;0.47;;;9.10;84.20;;;;;;4937754;29;20623;-72
2021/04/26 07:55:25;;;;;;;0.30;0.30;;;9.00;83.60;;;;;;4938051;29;20285;-72
2021/04/26 07:57:51;;;;;;;1.02;0.90;;;9.00;84.50;;;;;;4937446;29;20213;-73
2021/04/26 08:00:19;;;;;;;1.60;0.45;;;9.20;82.50;;;;;;4937596;29;20623;-72
2021/04/26 08:02:46;;;;;;;0.20;0.20;;;9.20;81.30;;;;;;4937818;29;20670;-71
2021/04/26 08:05:13;;;;;;;1.33;0.50;;;9.20;80.60;;;;;;4937660;29;20237;-71
2021/04/26 08:07:39;;;;;;;1.10;1.10;;;9.40;80.00;;;;;;4937355;29;20221;-71
2021/04/26 08:10:07;;;;;;;0.55;0.45;;;9.70;80.20;;;;;;4937616;29;20218;-71
2021/04/26 08:12:33;;;;;;;1.20;0.40;;;9.60;77.70;;;;;;4936835;29;20211;-71
2021/04/26 08:15:00;;;;;;;15.30;9.80;;;9.60;77.60;;;;;;4936430;29;20693;-71
2021/04/26 08:17:27;;;;;;;43.10;26.13;;;9.80;77.80;;;;;;4937474;29;20237;-71
2021/04/26 08:19:53;;;;;;;0.45;0.45;;;9.90;76.50;;;;;;4937583;29;20548;-72
2021/04/26 08:22:19;;;;;;;0.50;0.40;;;9.90;74.60;;;;;;4937076;29;20693;-70
2021/04/26 08:24:45;;;;;;;1.05;0.50;;;9.80;74.00;;;;;;4937624;29;20217;-70
2021/04/26 08:27:12;;;;;;;0.82;0.50;;;9.70;74.50;;;;;;4937246;29;20206;-71
2021/04/26 08:29:38;;;;;;;1.23;0.40;;;9.90;74.90;;;;;;4936983;29;20741;-71
2021/04/26 08:32:04;;;;;;;0.47;0.47;;;10.10;73.30;;;;;;4937455;29;20304;-71
2021/04/26 08:34:31;;;;;;;0.75;0.55;;;10.10;72.20;;;;;;4937458;29;20225;-70
2021/04/26 08:36:58;;;;;;;1.60;1.00;;;10.30;73.00;;;;;;4937608;29;20252;-70
2021/04/26 08:39:24;;;;;;;0.45;0.45;;;10.60;72.40;;;;;;4937472;29;20214;-71
2021/04/26 08:41:50;;;;;;;0.65;0.65;;;10.70;70.80;;;;;;4937755;29;20263;-71
2021/04/26 08:44:16;;;;;;;0.65;0.65;;;10.20;69.10;;;;;;4936592;29;20240;-71
2021/04/26 08:46:43;;;;;;;1.40;0.60;;;10.20;71.70;;;;;;4936915;29;20244;-71
2021/04/26 08:49:10;;;;;;;0.70;0.70;;;10.40;70.40;;;;;;4937481;29;20209;-71
2021/04/26 08:51:38;;;;;;;0.40;0.40;;;10.40;70.10;;;;;;4937303;29;20230;-71
2021/04/26 08:54:06;;;;;;;0.60;0.60;;;10.40;70.20;;;;;;4936791;29;20239;-72
2021/04/26 08:56:32;;;;;;;0.57;0.57;;;10.40;69.30;;;;;;4937370;29;20237;-70
2021/04/26 08:58:58;;;;;;;0.50;0.50;;;10.50;71.10;;;;;;4936823;29;20245;-70
2021/04/26 09:01:25;;;;;;;0.63;0.63;;;10.80;69.50;;;;;;4936620;29;20234;-70
2021/04/26 09:03:52;;;;;;;2.15;0.80;;;10.80;69.00;;;;;;4936697;29;20213;-70
2021/04/26 09:06:18;;;;;;;0.70;0.70;;;10.70;67.40;;;;;;4936739;29;20217;-69
2021/04/26 09:08:50;;;;;;;3.80;0.75;;;10.80;67.10;;;;;;4936579;29;20662;-70
2021/04/26 09:11:17;;;;;;;0.60;0.60;;;10.70;68.00;;;;;;4936927;29;20234;-69
2021/04/26 09:13:45;;;;;;;0.70;0.70;;;10.80;67.60;;;;;;4936550;29;20218;-70
2021/04/26 09:16:18;;;;;;;0.93;0.80;;;10.80;66.20;;;;;;4936101;29;20293;-70
2021/04/26 09:18:47;;;;;;;0.88;0.88;;;10.90;66.80;;;;;;4936689;29;20679;-70
2021/04/26 09:21:23;;;;;;;1.58;0.70;;;11.20;67.30;;;;;;4936501;29;20234;-70
2021/04/26 09:24:13;;;;;;;0.70;0.70;;;11.40;67.00;;;;;;4937567;29;20294;-70
2021/04/26 09:26:40;;;;;;;0.80;0.80;;;11.40;65.70;;;;;;4936383;29;20210;-70
2021/04/26 09:29:22;;;;;;;0.60;0.60;;;11.60;65.80;;;;;;4936039;29;20214;-69
2021/04/26 09:32:04;;;;;;;0.60;0.60;;;11.40;64.30;;;;;;4935463;29;20230;-69
2021/04/26 09:34:35;;;;;;;0.85;0.85;;;11.20;64.70;;;;;;4936638;29;20360;-69
2021/04/26 09:37:09;;;;;;;0.90;0.90;;;11.10;65.40;;;;;;4936718;29;20236;-70
2021/04/26 09:39:56;;;;;;;1.02;0.80;;;11.30;66.80;;;;;;4936958;29;20209;-71
2021/04/26 09:42:36;;;;;;;0.77;0.77;;;11.40;65.20;;;;;;4936107;29;20725;-72
2021/04/26 09:45:26;;;;;;;2.85;1.00;;;11.20;64.50;;;;;;4935958;29;20209;-69
2021/04/26 09:48:09;;;;;;;0.80;0.80;;;10.90;63.60;;;;;;4936315;29;20221;-69
2021/04/26 09:50:48;;;;;;;0.93;0.90;;;10.70;64.30;;;;;;4936030;29;20234;-69
2021/04/26 09:53:14;;;;;;;0.88;0.88;;;10.80;66.20;;;;;;4935997;29;20674;-69
2021/04/26 09:55:41;;;;;;;0.90;0.90;;;10.90;65.00;;;;;;4936053;29;20241;-69
2021/04/26 09:58:08;;;;;;;0.93;0.93;;;10.90;64.10;;;;;;4935912;29;20537;-69
2021/04/26 10:00:35;;;;;;;0.95;0.95;;;10.60;62.70;;;;;;4935507;29;20229;-69
2021/04/26 10:03:03;;;;;;;0.60;0.60;;;10.30;63.80;;;;;;4935798;29;20325;-69
2021/04/26 10:05:29;;;;;;;1.15;1.10;;;10.30;65.90;;;;;;4935642;29;20218;-72
2021/04/26 10:07:56;;;;;;;0.85;0.85;;;10.50;65.90;;;;;;4935660;28;20217;-71
2021/04/26 10:10:22;;;;;;;0.80;0.80;;;10.70;66.70;;;;;;4936435;29;20662;-72
2021/04/26 10:12:49;;;;;;;0.90;0.90;;;11.00;65.80;;;;;;4935636;29;20272;-72
2021/04/26 10:15:16;;;;;;;1.00;1.00;;;11.10;64.30;;;;;;4935118;29;20265;-70
2021/04/26 10:17:46;;;;;;;1.63;1.17;;;11.00;62.80;;;;;;4935930;29;20244;-70
2021/04/26 10:20:15;;;;;;;1.25;1.25;;;11.10;62.90;;;;;;4935474;29;20248;-70
2021/04/26 10:22:43;;;;;;;1.02;1.02;;;11.20;63.10;;;;;;4935273;29;20221;-71
2021/04/26 10:25:10;;;;;;;2.28;1.10;;;11.30;62.70;;;;;;4935486;29;20570;-71
2021/04/26 10:27:38;;;;;;;0.90;0.90;;;11.40;62.80;;;;;;4934780;29;20212;-71
2021/04/26 10:30:08;;;;;;;1.02;1.02;;;11.60;59.70;;;;;;4934983;29;20224;-71
2021/04/26 10:32:56;;;;;;;0.88;0.88;;;11.40;60.70;;;;;;4935264;29;20210;-71
2021/04/26 10:35:23;;;;;;;1.27;1.17;;;11.50;61.70;;;;;;4935156;29;20281;-72
2021/04/26 10:37:52;;;;;;;1.67;1.20;;;11.80;61.10;;;;;;4935533;29;20213;-71
2021/04/26 10:40:23;;;;;;;1.45;1.02;;;12.20;61.30;;;;;;4936548;29;20210;-70
2021/04/26 10:42:51;;;;;;;1.50;1.40;;;12.40;58.70;;;;;;4934988;29;20373;-71
2021/04/26 10:45:24;;;;;;;1.20;1.20;;;12.50;57.00;;;;;;4934812;29;20209;-72
2021/04/26 10:48:10;;;;;;;1.30;1.30;;;12.30;57.40;;;;;;4935885;29;20269;-72
2021/04/26 10:50:49;;;;;;;1.05;1.05;;;12.10;57.10;;;;;;4935655;29;20253;-71
2021/04/26 10:53:15;;;;;;;1.47;1.37;;;12.00;57.70;;;;;;4935840;29;20224;-70
2021/04/26 10:55:54;;;;;;;1.58;1.58;;;12.00;57.90;;;;;;4935230;29;20469;-69
2021/04/26 10:58:38;;;;;;;1.25;1.25;;;11.80;57.10;;;;;;4935655;29;20209;-69
2021/04/26 11:01:07;;;;;;;1.55;1.45;;;11.60;58.30;;;;;;4934533;29;20245;-70
2021/04/26 11:03:40;;;;;;;1.48;1.38;;;11.70;59.40;;;;;;4934973;29;20209;-70
2021/04/26 11:06:28;;;;;;;1.40;1.40;;;11.80;58.80;;;;;;4935805;28;20234;-71
2021/04/26 11:14:28;;;;;;;1.30;1.30;;;11.90;58.40;;;;;;4938126;29;20292;-70
2021/04/26 11:17:04;;;;;;;1.17;1.17;;;11.70;57.60;;;;;;4935349;29;20236;-70
2021/04/26 11:19:31;;;;;;;1.70;1.60;;;11.50;57.80;;;;;;4940677;29;20666;-70
2021/04/26 11:22:06;;;;;;;1.20;1.20;;;11.60;58.50;;;;;;4941046;29;20234;-70
2021/04/26 11:24:51;;;;;;;1.63;1.55;;;11.90;58.80;;;;;;4939117;29;20537;-70
2021/04/26 11:27:22;;;;;;;1.48;1.48;;;11.80;58.10;;;;;;4937000;29;20228;-70
2021/04/26 11:30:11;;;;;;;1.30;1.27;;;12.00;58.00;;;;;;4935209;29;20305;-70
2021/04/26 11:32:59;;;;;;;1.15;1.05;;;11.90;56.50;;;;;;4936195;29;20220;-70
2021/04/26 11:35:26;;;;;;;1.67;1.45;;;11.80;57.10;;;;;;4935643;29;20263;-70
2021/04/26 11:37:54;;;;;;;1.27;1.27;;;11.90;56.90;;;;;;4935301;29;20230;-69
2021/04/26 11:40:22;;;;;;;3.08;1.70;;;11.90;56.60;;;;;;4938539;29;20213;-71
2021/04/26 11:42:49;;;;;;;0.95;0.95;;;11.90;56.90;;;;;;4939719;29;20214;-71
2021/04/26 11:45:20;;;;;;;1.30;1.30;;;12.10;56.80;;;;;;4940704;29;20206;-70
2021/04/26 11:47:49;;;;;;;1.50;1.40;;;12.10;56.80;;;;;;4939266;29;20218;-70
2021/04/26 11:50:15;;;;;;;2.22;1.35;;;12.20;57.20;;;;;;4938561;29;20237;-71
2021/04/26 11:52:42;;;;;;;1.63;1.55;;;12.30;56.60;;;;;;4942706;29;20205;-70
2021/04/26 11:55:16;;;;;;;1.23;1.23;;;12.30;56.10;;;;;;4943768;29;20210;-70
2021/04/26 11:57:47;;;;;;;3.42;1.63;;;12.10;55.70;;;;;;4943742;29;20677;-70
2021/04/26 12:00:16;;;;;;;1.30;1.30;;;12.00;55.90;;;;;;4942754;29;20657;-70
2021/04/26 12:02:45;;;;;;;1.52;1.42;;;12.20;56.20;;;;;;4939648;29;20218;-70
2021/04/26 12:05:14;;;;;;;2.35;1.63;;;12.30;55.90;;;;;;4939034;29;20209;-70
2021/04/26 12:07:41;;;;;;;1.42;1.42;;;12.30;55.60;;;;;;4938366;29;20210;-70
2021/04/26 12:10:10;;;;;;;1.30;1.20;;;12.20;55.30;;;;;;4938107;29;20371;-70
2021/04/26 12:12:37;;;;;;;1.27;1.17;;;12.10;55.10;;;;;;4937722;29;20261;-70
2021/04/26 12:15:06;;;;;;;1.40;1.30;;;12.10;55.90;;;;;;4938018;29;20218;-69
2021/04/26 12:17:34;;;;;;;1.33;1.25;;;12.10;56.30;;;;;;4938313;29;20238;-73
2021/04/26 12:20:09;;;;;;;1.55;1.48;;;12.20;55.70;;;;;;4937794;29;20213;-72
2021/04/26 12:22:36;;;;;;;2.35;1.63;;;12.10;56.00;;;;;;4937718;29;20217;-71
2021/04/26 12:25:05;;;;;;;1.10;1.10;;;12.20;57.00;;;;;;4937912;29;20689;-71
2021/04/26 12:27:31;;;;;;;1.33;1.33;;;12.20;56.20;;;;;;4937539;29;20237;-71
2021/04/26 12:30:09;;;;;;;1.52;1.42;;;12.20;55.50;;;;;;4937226;29;20217;-71
2021/04/26 12:32:36;;;;;;;1.45;1.45;;;12.40;55.80;;;;;;4937689;29;20209;-71
2021/04/26 12:35:05;;;;;;;1.95;1.85;;;12.50;55.90;;;;;;4937323;29;20206;-71
2021/04/26 12:37:33;;;;;;;2.25;1.40;;;12.60;55.70;;;;;;4937891;29;20777;-70
2021/04/26 12:40:28;;;;;;;1.50;1.50;;;12.70;55.10;;;;;;4937539;29;20697;-70
2021/04/26 12:43:03;;;;;;;1.40;1.40;;;12.70;55.00;;;;;;4914165;29;20473;-70
2021/04/26 12:45:34;;;;;;;1.33;1.33;;;12.70;54.70;;;;;;4937345;29;20217;-70
2021/04/26 12:48:02;;;;;;;1.50;1.50;;;12.50;54.70;;;;;;4937706;29;20218;-69
2021/04/26 12:50:32;;;;;;;1.77;1.30;;;12.40;54.50;;;;;;4937868;29;20230;-69
2021/04/26 12:53:11;;;;;;;2.92;1.55;;;12.30;55.00;;;;;;4938023;29;20213;-69
2021/04/26 12:55:41;;;;;;;1.75;1.20;;;12.30;55.10;;;;;;4937398;29;20224;-69
2021/04/26 12:58:11;;;;;;;1.42;1.40;;;12.20;55.40;;;;;;4937800;29;20237;-69
2021/04/26 13:00:39;;;;;;;1.25;1.25;;;12.30;55.00;;;;;;4937661;29;20245;-69
2021/04/26 13:03:30;;;;;;;1.33;1.33;;;12.30;54.60;;;;;;4946464;29;20284;-69
2021/04/26 13:05:58;;;;;;;4.53;1.90;;;12.20;55.10;;;;;;4945897;28;20218;-70
2021/04/26 13:08:25;;;;;;;1.40;1.40;;;12.20;55.10;;;;;;4936978;29;20193;-70
2021/04/26 13:10:54;;;;;;;2.67;1.40;;;12.50;55.40;;;;;;4936949;29;20272;-70
2021/04/26 13:13:21;;;;;;;1.30;1.30;;;12.60;54.70;;;;;;4936495;29;20213;-70
2021/04/26 13:15:48;;;;;;;1.80;1.70;;;12.70;54.90;;;;;;4936340;29;20220;-70
2021/04/26 13:18:17;;;;;;;1.47;1.47;;;12.90;54.70;;;;;;4936945;29;20217;-70
2021/04/26 13:20:45;;;;;;;1.75;1.52;;;12.90;54.40;;;;;;4936743;29;20485;-70
2021/04/26 13:23:21;;;;;;;1.40;1.30;;;12.70;53.70;;;;;;4937122;29;20217;-70
2021/04/26 13:25:48;;;;;;;1.30;1.30;;;12.80;54.00;;;;;;4937112;29;20218;-70
2021/04/26 13:28:32;;;;;;;3.03;1.33;;;12.90;54.30;;;;;;4935979;29;20217;-70
2021/04/26 13:31:00;;;;;;;1.57;1.57;;;12.90;53.30;;;;;;4935878;29;20681;-70
2021/04/26 13:33:27;;;;;;;1.38;1.38;;;12.90;53.60;;;;;;4936315;29;20493;-70
2021/04/26 13:35:54;;;;;;;1.48;1.38;;;12.60;53.50;;;;;;4936315;29;20213;-70
2021/04/26 13:38:21;;;;;;;1.77;1.15;;;12.50;53.70;;;;;;4936435;29;20341;-70
2021/04/26 13:40:49;;;;;;;1.02;1.02;;;12.40;54.20;;;;;;4936614;29;20233;-70
2021/04/26 13:43:16;;;;;;;1.95;1.23;;;12.20;54.40;;;;;;4935799;29;20210;-70
2021/04/26 13:45:43;;;;;;;1.73;1.73;;;12.20;54.40;;;;;;4935470;29;20252;-70
2021/04/26 13:48:09;;;;;;;1.85;1.33;;;12.10;54.50;;;;;;4936185;29;20565;-70
2021/04/26 13:50:36;;;;;;;1.50;1.50;;;12.10;54.80;;;;;;4935796;29;20326;-70
2021/04/26 13:53:03;;;;;;;1.77;1.67;;;12.00;54.60;;;;;;4935983;29;20299;-70
2021/04/26 13:55:29;;;;;;;1.55;1.45;;;12.10;54.70;;;;;;4936144;29;20210;-70
2021/04/26 13:57:55;;;;;;;1.52;1.50;;;12.20;54.70;;;;;;4935584;29;20304;-70
2021/04/26 14:00:22;;;;;;;1.15;1.15;;;12.40;54.80;;;;;;4935717;29;20368;-70
2021/04/26 14:02:49;;;;;;;1.48;1.33;;;12.40;54.50;;;;;;4936550;29;20210;-71
2021/04/26 14:05:15;;;;;;;1.38;1.38;;;12.50;54.60;;;;;;4937044;29;20214;-69
2021/04/26 14:07:42;;;;;;;1.45;1.45;;;12.60;55.00;;;;;;4936983;29;20210;-69
2021/04/26 14:10:09;;;;;;;1.35;1.35;;;12.60;53.40;;;;;;4935851;29;20221;-70
2021/04/26 14:12:35;;;;;;;1.45;1.45;;;12.50;53.30;;;;;;4934788;29;20260;-70
2021/04/26 14:15:02;;;;;;;1.73;1.63;;;12.30;53.60;;;;;;4935320;29;20232;-70
2021/04/26 14:17:28;;;;;;;1.23;1.23;;;12.30;54.50;;;;;;4936446;29;20733;-69
2021/04/26 14:19:55;;;;;;;1.30;1.30;;;12.40;53.70;;;;;;4935483;29;20261;-70
2021/04/26 14:22:21;;;;;;;1.98;1.48;;;12.20;53.90;;;;;;4935560;29;20237;-70
2021/04/26 14:24:48;;;;;;;1.25;1.25;;;12.20;53.80;;;;;;4935325;29;20702;-69
2021/04/26 14:27:14;;;;;;;0.98;0.98;;;12.20;54.40;;;;;;4935258;29;20249;-69
2021/04/26 14:29:40;;;;;;;1.45;1.40;;;12.20;54.70;;;;;;4935123;29;20218;-69
2021/04/26 14:32:07;;;;;;;3.08;1.17;;;12.10;54.50;;;;;;4935857;29;20308;-69
2021/04/26 14:34:33;;;;;;;1.95;1.40;;;12.10;55.00;;;;;;4936812;29;20214;-69
2021/04/26 14:37:00;;;;;;;1.13;1.13;;;12.10;54.90;;;;;;4937478;29;20237;-69
2021/04/26 14:39:27;;;;;;;1.60;1.60;;;12.00;54.40;;;;;;4935611;29;20217;-69
2021/04/26 14:41:56;;;;;;;1.08;1.05;;;11.90;54.10;;;;;;4935439;29;20240;-69
2021/04/26 14:44:22;;;;;;;0.85;0.68;;;11.90;54.50;;;;;;4935176;29;20216;-70
2021/04/26 14:46:48;;;;;;;1.50;1.50;;;11.80;54.60;;;;;;4936244;29;20224;-68
2021/04/26 14:49:14;;;;;;;1.30;1.30;;;11.90;55.10;;;;;;4934981;29;20209;-68
2021/04/26 14:51:41;;;;;;;1.40;1.30;;;11.90;54.80;;;;;;4935029;29;20234;-68
2021/04/26 14:54:08;;;;;;;1.58;1.52;;;11.90;54.60;;;;;;4934984;29;20426;-69
2021/04/26 14:56:34;;;;;;;5.03;1.77;;;12.00;55.30;;;;;;4934716;29;20225;-69
2021/04/26 14:59:00;;;;;;;1.33;1.33;;;11.90;54.40;;;;;;4934780;29;20674;-69
2021/04/26 15:01:27;;;;;;;1.75;1.15;;;12.00;54.30;;;;;;4934687;29;20246;-69
2021/04/26 15:03:53;;;;;;;1.05;1.05;;;12.00;54.20;;;;;;4934900;29;20651;-68
2021/04/26 15:06:19;;;;;;;3.22;1.48;;;12.00;54.00;;;;;;4934867;28;20670;-69
2021/04/26 15:08:45;;;;;;;3.45;1.50;;;12.00;54.30;;;;;;4935511;29;20276;-69
2021/04/26 15:11:12;;;;;;;1.23;1.23;;;12.00;54.80;;;;;;4934844;29;20232;-69
2021/04/26 15:13:38;;;;;;;2.92;1.40;;;12.00;54.40;;;;;;4934944;29;20205;-68
2021/04/26 15:16:05;;;;;;;1.40;1.30;;;12.00;54.50;;;;;;4934615;29;20214;-69
2021/04/26 15:18:32;;;;;;;1.30;1.20;;;11.90;54.30;;;;;;4935128;29;20632;-70
2021/04/26 15:20:58;;;;;;;1.58;1.48;;;11.90;53.70;;;;;;4935338;29;20238;-69
2021/04/26 15:23:24;;;;;;;1.42;1.30;;;11.90;54.50;;;;;;4935921;29;20639;-70
2021/04/26 15:25:51;;;;;;;2.55;1.40;;;11.90;54.60;;;;;;4939680;29;20265;-70
2021/04/26 15:28:19;;;;;;;0.98;0.98;;;11.90;54.50;;;;;;4939773;29;20210;-70
2021/04/26 15:30:46;;;;;;;2.45;1.27;;;12.00;54.30;;;;;;4939870;29;20233;-69
2021/04/26 15:33:13;;;;;;;8.85;1.20;;;12.00;54.00;;;;;;4938875;29;20214;-69
2021/04/26 15:35:41;;;;;;;2.17;1.15;;;12.00;54.10;;;;;;4938941;29;20257;-68
2021/04/26 15:38:08;;;;;;;1.88;1.77;;;12.10;53.70;;;;;;4938490;29;20230;-69
2021/04/26 15:40:36;;;;;;;1.00;1.00;;;12.20;53.70;;;;;;4938588;29;20242;-69
2021/04/26 15:43:02;;;;;;;5.30;1.40;;;12.30;54.00;;;;;;4938019;29;20750;-70
2021/04/26 15:45:29;;;;;;;1.40;1.35;;;12.30;53.30;;;;;;4938647;29;20245;-72
2021/04/26 15:47:55;;;;;;;1.10;1.10;;;12.60;53.80;;;;;;4938619;29;20205;-72
2021/04/26 15:50:22;;;;;;;1.10;1.10;;;12.50;53.20;;;;;;4938228;29;20221;-73
2021/04/26 15:52:49;;;;;;;1.02;1.02;;;12.30;53.60;;;;;;4938008;29;20265;-72
2021/04/26 15:55:15;;;;;;;1.98;1.20;;;12.20;53.90;;;;;;4938674;29;20206;-73
2021/04/26 15:57:42;;;;;;;3.03;1.08;;;12.00;53.50;;;;;;4938481;29;20226;-73
2021/04/26 16:00:10;;;;;;;1.00;1.00;;;12.00;53.90;;;;;;4939316;29;20210;-72
2021/04/26 16:02:37;;;;;;;1.40;1.30;;;11.90;54.10;;;;;;4939212;29;20224;-72
2021/04/26 16:05:05;;;;;;;1.10;1.10;;;11.90;53.90;;;;;;4938779;29;20210;-72
2021/04/26 16:07:31;;;;;;;2.05;1.30;;;11.80;54.00;;;;;;4938714;29;20209;-73
2021/04/26 16:09:58;;;;;;;0.98;0.98;;;11.80;53.90;;;;;;4941280;29;20270;-72
2021/04/26 16:12:27;;;;;;;1.60;1.13;;;11.70;54.20;;;;;;4943988;29;20237;-72
2021/04/26 16:14:53;;;;;;;1.35;1.08;;;11.50;54.50;;;;;;4941708;29;20525;-71
2021/04/26 16:17:20;;;;;;;1.23;1.17;;;11.50;54.50;;;;;;4938285;29;20229;-71
2021/04/26 16:19:47;;;;;;;1.17;1.17;;;11.50;55.00;;;;;;4937727;29;20575;-71
2021/04/26 16:22:13;;;;;;;1.00;1.00;;;11.50;54.80;;;;;;4938384;29;20237;-72
2021/04/26 16:24:40;;;;;;;3.10;1.40;;;11.40;54.40;;;;;;4938650;29;20261;-72
2021/04/26 16:27:06;;;;;;;1.50;1.38;;;11.40;54.60;;;;;;4938388;29;20292;-72
2021/04/26 16:29:34;;;;;;;0.98;0.98;;;11.30;54.60;;;;;;4938014;29;20210;-72
2021/04/26 16:32:02;;;;;;;2.63;1.10;;;11.20;54.60;;;;;;4939640;29;20585;-71
2021/04/26 16:34:28;;;;;;;1.20;1.20;;;11.20;55.30;;;;;;4939195;29;20214;-71
2021/04/26 16:36:55;;;;;;;1.60;1.50;;;11.10;55.10;;;;;;4938604;29;20233;-71
2021/04/26 16:39:21;;;;;;;1.50;1.40;;;11.10;55.20;;;;;;4937679;29;20221;-72
2021/04/26 16:41:48;;;;;;;1.33;1.25;;;11.10;55.10;;;;;;4937610;29;20234;-73
2021/04/26 16:44:14;;;;;;;1.40;1.40;;;11.10;55.70;;;;;;4937027;29;20214;-73
2021/04/26 16:46:41;;;;;;;6.43;1.40;;;11.10;55.90;;;;;;4937182;29;20265;-72
2021/04/26 16:49:10;;;;;;;0.70;0.70;;;11.10;55.80;;;;;;4937127;29;20212;-71
2021/04/26 16:51:36;;;;;;;0.40;0.40;;;11.10;55.90;;;;;;4937263;29;20757;-72
2021/04/26 16:54:04;;;;;;;1.90;1.05;;;11.00;56.00;;;;;;4937137;29;20206;-72
2021/04/26 16:56:30;;;;;;;0.80;0.80;;;11.00;56.20;;;;;;4937480;29;20655;-72
2021/04/26 16:58:57;;;;;;;2.45;1.42;;;11.00;56.00;;;;;;4937394;29;20300;-72
2021/04/26 17:01:23;;;;;;;1.40;0.90;;;10.90;56.00;;;;;;4937498;29;20237;-72